Time;durP1;ratioP1;P1;durP2;ratioP2;P2;SDS_P1;SDS_P2;PMS_P1;PMS_P2;Temp;Humidity;BMP_temperature;BMP_pressure;BME280_temperature;BME280_humidity;BME280_pressure;Samples;Min_cycle;Max_cycle;Signal;HPM_P1;HPM_P2
2022/01/03 00:00:14;;;;;;;;;;;;;;;10.95;90.24;98947.89;1689653;83;21995;-77
2022/01/03 00:02:40;;;;;;;;;;;;;;;10.97;90.09;99002.69;1696675;83;20165;-77
2022/01/03 00:05:06;;;;;;;;;;;;;;;10.99;89.47;98983.50;1705221;83;20314;-74
2022/01/03 00:07:34;;;;;;;;;;;;;;;10.97;88.73;98955.14;1700915;83;20713;-79
2022/01/03 00:09:59;;;;;;;;;;;;;;;11.04;88.03;98995.63;1708993;83;20146;-80
2022/01/03 00:12:25;;;;;;;;;;;;;;;11.04;87.68;98973.18;1688902;83;21091;-77
2022/01/03 00:14:51;;;;;;;;;;;;;;;11.05;88.02;98928.59;1686218;83;20149;-77
2022/01/03 00:17:16;;;;;;;;;;;;;;;10.98;88.27;98959.91;1687527;83;20469;-77
2022/01/03 00:19:42;;;;;;;;;;;;;;;11.03;88.15;98952.23;1687825;83;20142;-78
2022/01/03 00:22:08;;;;;;;;;;;;;;;10.96;88.43;98983.88;1688910;83;20299;-79
2022/01/03 00:24:34;;;;;;;;;;;;;;;10.91;88.70;98937.41;1676809;83;21150;-79
2022/01/03 00:27:05;;;;;;;;;;;;;;;10.93;88.66;98939.34;1682072;83;20190;-77
2022/01/03 00:29:44;;;;;;;;;;;;;;;10.91;88.82;98967.78;1679461;83;20092;-77
2022/01/03 00:32:12;;;;;;;;;;;;;;;10.85;89.01;98948.20;1689224;83;20482;-76
2022/01/03 00:34:38;;;;;;;;;;;;;;;10.86;88.75;98945.05;1684844;83;20163;-82
2022/01/03 00:37:05;;;;;;;;;;;;;;;10.81;89.22;98954.05;1654904;83;21192;-77
2022/01/03 00:39:31;;;;;;;;;;;;;;;10.82;88.71;98947.77;1681131;83;20539;-78
2022/01/03 00:41:58;;;;;;;;;;;;;;;10.80;88.76;98952.41;1677939;83;20185;-75
2022/01/03 00:44:24;;;;;;;;;;;;;;;10.80;88.61;98986.25;1677729;83;20213;-81
2022/01/03 00:46:49;;;;;;;;;;;;;;;10.83;88.50;98937.02;1677133;83;20167;-80
2022/01/03 00:49:15;;;;;;;;;;;;;;;10.82;88.52;98953.05;1665394;83;21098;-81
2022/01/03 00:51:41;;;;;;;;;;;;;;;10.84;88.36;98939.16;1692921;83;20138;-80
2022/01/03 00:54:08;;;;;;;;;;;;;;;10.85;88.15;98932.36;1666835;83;20151;-77
2022/01/03 00:56:45;;;;;;;;;;;;;;;10.85;87.90;98922.31;1681049;83;20177;-80
2022/01/03 00:59:11;;;;;;;;;;;;;;;10.86;87.64;98930.53;1689201;83;20136;-77
2022/01/03 01:01:39;;;;;;;;;;;;;;;10.90;87.37;98930.48;1693601;83;21039;-80
2022/01/03 01:04:09;;;;;;;;;;;;;;;10.86;87.41;98949.02;1686914;83;20173;-78
2022/01/03 01:06:36;;;;;;;;;;;;;;;10.91;87.21;98940.05;1689498;83;20219;-78
2022/01/03 01:09:03;;;;;;;;;;;;;;;10.87;87.14;98944.06;1682112;83;20211;-76
2022/01/03 01:11:30;;;;;;;;;;;;;;;10.84;87.28;98921.98;1685659;83;20273;-81
2022/01/03 01:13:55;;;;;;;;;;;;;;;10.91;86.56;98932.13;1658678;83;21017;-80
2022/01/03 01:16:22;;;;;;;;;;;;;;;11.06;86.27;98915.70;1657200;85;21568;-79
2022/01/03 01:18:49;;;;;;;;;;;;;;;10.86;86.62;98904.95;1658132;85;20218;-77
2022/01/03 01:21:16;;;;;;;;;;;;;;;10.85;86.54;98895.39;1656444;85;20198;-78
2022/01/03 01:23:43;;;;;;;;;;;;;;;10.83;86.42;98959.95;1629654;86;20334;-81
2022/01/03 01:28:54;;;;;;;;;;;;;;;10.78;86.50;98923.06;1652305;86;20174;-80
2022/01/03 01:31:22;;;;;;;;;;;;;;;10.82;86.38;98911.61;1657426;85;20385;-78
2022/01/03 01:33:51;;;;;;;;;;;;;;;10.74;86.38;98912.55;1656902;86;20147;-78
2022/01/03 01:36:16;;;;;;;;;;;;;;;10.74;86.47;98915.19;1653386;85;20204;-81
2022/01/03 01:38:42;;;;;;;;;;;;;;;10.54;87.34;98904.93;1654598;85;21163;-80
2022/01/03 01:41:08;;;;;;;;;;;;;;;10.64;87.18;98892.73;1659571;85;20147;-78
2022/01/03 01:43:41;;;;;;;;;;;;;;;10.51;87.58;98957.58;1654002;85;20324;-78
2022/01/03 01:46:12;;;;;;;;;;;;;;;10.56;87.56;98885.24;1653649;86;20179;-78
2022/01/03 01:48:39;;;;;;;;;;;;;;;10.49;87.75;98909.96;1656551;86;20479;-77
2022/01/03 01:51:06;;;;;;;;;;;;;;;10.47;88.05;98914.11;1651296;86;21899;-77
2022/01/03 01:53:32;;;;;;;;;;;;;;;10.47;88.00;98893.47;1656312;86;21326;-77
2022/01/03 01:55:58;;;;;;;;;;;;;;;10.38;88.40;98904.15;1652362;85;20231;-81
2022/01/03 01:58:30;;;;;;;;;;;;;;;10.51;88.12;98879.72;1653328;85;20246;-77
2022/01/03 02:01:02;;;;;;;;;;;;;;;10.49;88.16;98916.56;1652959;85;20205;-76
2022/01/03 02:03:49;;;;;;;;;;;;;;;10.55;88.02;98913.14;1647960;86;21204;-77
2022/01/03 02:06:27;;;;;;;;;;;;;;;10.51;88.24;98880.23;1660604;86;20187;-76
2022/01/03 02:09:10;;;;;;;;;;;;;;;10.44;88.52;98953.23;1647640;86;20158;-78
2022/01/03 02:11:50;;;;;;;;;;;;;;;10.45;88.61;98905.53;1648056;86;20947;-75
2022/01/03 02:14:16;;;;;;;;;;;;;;;10.47;88.60;98897.43;1687781;83;20197;-78
2022/01/03 02:16:42;;;;;;;;;;;;;;;10.45;88.82;98987.35;1692307;83;21418;-77
2022/01/03 02:19:09;;;;;;;;;;;;;;;10.38;88.94;98901.51;1694149;83;20303;-77
2022/01/03 02:21:34;;;;;;;;;;;;;;;10.41;89.14;98903.78;1691959;83;20241;-77
2022/01/03 02:24:00;;;;;;;;;;;;;;;10.43;89.13;98890.91;1691640;83;20193;-78
2022/01/03 02:26:28;;;;;;;;;;;;;;;10.41;89.43;98899.82;1680848;83;20144;-77
2022/01/03 02:28:53;;;;;;;;;;;;;;;10.34;89.45;98876.48;1694113;83;21088;-76
2022/01/03 02:31:21;;;;;;;;;;;;;;;10.29;89.35;98881.48;1689598;83;20187;-77
2022/01/03 02:33:46;;;;;;;;;;;;;;;10.29;89.49;98881.99;1697641;83;20208;-77
2022/01/03 02:36:12;;;;;;;;;;;;;;;10.23;89.60;98891.45;1687482;83;20264;-77
2022/01/03 02:38:37;;;;;;;;;;;;;;;10.20;89.66;98881.27;1687670;83;20538;-76
2022/01/03 02:41:03;;;;;;;;;;;;;;;10.18;89.72;98893.84;1679254;83;21138;-77
2022/01/03 02:43:29;;;;;;;;;;;;;;;10.13;90.06;98898.83;1708505;83;21218;-76
2022/01/03 02:45:54;;;;;;;;;;;;;;;10.13;90.14;98892.23;1690455;83;20247;-77
2022/01/03 02:48:23;;;;;;;;;;;;;;;10.06;90.20;98912.75;1684909;83;20160;-77
2022/01/03 02:50:49;;;;;;;;;;;;;;;10.05;90.40;98866.78;1685527;83;20519;-77
2022/01/03 02:53:15;;;;;;;;;;;;;;;9.96;90.71;98923.26;1695031;83;21208;-80
2022/01/03 02:55:41;;;;;;;;;;;;;;;9.93;90.86;98867.77;1693423;83;20127;-78
2022/01/03 02:58:07;;;;;;;;;;;;;;;9.89;91.03;98887.58;1700451;83;20196;-77
2022/01/03 03:00:35;;;;;;;;;;;;;;;9.83;91.38;98898.86;1688018;83;20212;-77
2022/01/03 03:03:02;;;;;;;;;;;;;;;9.87;91.54;98914.64;1699377;83;20170;-78
2022/01/03 03:05:28;;;;;;;;;;;;;;;9.86;91.29;98881.36;1689260;83;20161;-77
2022/01/03 03:07:54;;;;;;;;;;;;;;;9.91;91.15;98854.44;1693884;83;20177;-77
2022/01/03 03:10:20;;;;;;;;;;;;;;;9.77;91.42;98866.16;1686508;83;20355;-77
2022/01/03 03:12:46;;;;;;;;;;;;;;;9.72;91.59;98849.23;1690127;83;20755;-77
2022/01/03 03:15:13;;;;;;;;;;;;;;;9.59;92.21;98857.28;1688593;83;20293;-80
2022/01/03 03:17:42;;;;;;;;;;;;;;;9.60;92.27;98853.66;1688967;83;21037;-78
2022/01/03 03:20:19;;;;;;;;;;;;;;;9.57;92.56;98863.24;1697709;83;20213;-77
2022/01/03 03:22:44;;;;;;;;;;;;;;;9.51;92.87;98874.50;1701309;83;20215;-77
2022/01/03 03:25:14;;;;;;;;;;;;;;;9.53;93.08;98848.78;1698661;83;20170;-77
2022/01/03 03:27:44;;;;;;;;;;;;;;;9.48;93.32;98857.23;1693520;83;20495;-77
2022/01/03 03:30:13;;;;;;;;;;;;;;;9.64;92.68;98862.00;1698922;83;21149;-80
2022/01/03 03:32:38;;;;;;;;;;;;;;;9.70;92.34;98846.78;1698198;83;20168;-79
2022/01/03 03:35:04;;;;;;;;;;;;;;;9.64;92.54;98848.31;1700006;83;20160;-77
2022/01/03 03:37:30;;;;;;;;;;;;;;;9.63;92.26;98874.86;1709703;83;20723;-81
2022/01/03 03:39:55;;;;;;;;;;;;;;;9.59;92.15;98870.45;1710843;83;20129;-76
2022/01/03 03:42:21;;;;;;;;;;;;;;;9.56;92.31;98873.97;1692134;83;21235;-76
2022/01/03 03:44:47;;;;;;;;;;;;;;;9.58;92.44;98867.49;1705044;83;20615;-75
2022/01/03 03:47:12;;;;;;;;;;;;;;;9.55;92.27;98869.17;1696619;83;20131;-77
2022/01/03 03:49:38;;;;;;;;;;;;;;;9.44;92.75;98868.31;1701778;83;20144;-76
2022/01/03 03:52:04;;;;;;;;;;;;;;;9.20;93.66;98854.39;1690472;83;20152;-77
2022/01/03 03:54:29;;;;;;;;;;;;;;;9.23;93.47;98879.05;1691580;83;20948;-77
2022/01/03 03:56:57;;;;;;;;;;;;;;;9.26;93.20;98861.57;1704962;83;20513;-77
2022/01/03 03:59:22;;;;;;;;;;;;;;;9.23;93.07;98877.73;1696654;83;20220;-78
2022/01/03 04:01:48;;;;;;;;;;;;;;;9.22;93.25;98862.11;1693219;83;20175;-76
2022/01/03 04:04:14;;;;;;;;;;;;;;;9.18;93.35;98880.06;1702512;83;20306;-77
2022/01/03 04:06:40;;;;;;;;;;;;;;;9.12;93.71;98900.05;1704391;83;21218;-76
2022/01/03 04:09:05;;;;;;;;;;;;;;;8.95;94.63;98854.61;1707052;83;20462;-77
2022/01/03 04:11:31;;;;;;;;;;;;;;;8.93;94.87;98875.03;1701179;83;20148;-77
2022/01/03 04:13:57;;;;;;;;;;;;;;;8.89;95.78;98865.84;1702647;83;20183;-77
2022/01/03 04:16:22;;;;;;;;;;;;;;;8.89;96.16;98888.73;1690679;83;20239;-78
2022/01/03 04:18:48;;;;;;;;;;;;;;;9.01;96.30;98883.84;1692334;83;21098;-77
2022/01/03 04:21:13;;;;;;;;;;;;;;;9.10;95.83;98874.88;1693315;83;20163;-76
2022/01/03 04:23:39;;;;;;;;;;;;;;;9.03;96.23;98897.16;1694182;83;20156;-76
2022/01/03 04:26:05;;;;;;;;;;;;;;;9.04;96.47;98891.39;1704551;83;20159;-76
2022/01/03 04:28:30;;;;;;;;;;;;;;;9.06;96.49;98855.16;1687339;83;20180;-76
2022/01/03 04:30:56;;;;;;;;;;;;;;;9.07;96.37;98852.34;1685279;83;21890;-75
2022/01/03 04:33:22;;;;;;;;;;;;;;;9.09;96.42;98860.91;1681529;83;20144;-75
2022/01/03 04:35:47;;;;;;;;;;;;;;;9.04;96.58;98917.72;1687977;83;20223;-76
2022/01/03 04:38:13;;;;;;;;;;;;;;;9.06;96.53;98884.12;1703005;83;20797;-78
2022/01/03 04:40:38;;;;;;;;;;;;;;;9.11;96.48;98871.27;1695335;83;20463;-75
2022/01/03 04:43:04;;;;;;;;;;;;;;;8.92;97.37;98873.39;1692601;83;21130;-76
2022/01/03 04:45:30;;;;;;;;;;;;;;;8.92;97.60;98877.34;1702295;83;20158;-76
2022/01/03 04:47:55;;;;;;;;;;;;;;;8.92;97.97;98883.92;1703359;83;20271;-76
2022/01/03 04:50:21;;;;;;;;;;;;;;;8.88;98.04;98869.46;1687987;83;20875;-76
2022/01/03 04:52:47;;;;;;;;;;;;;;;8.89;97.79;98873.73;1706883;83;20144;-75
2022/01/03 04:55:13;;;;;;;;;;;;;;;8.98;97.58;98877.14;1677036;83;21184;-75
2022/01/03 04:57:38;;;;;;;;;;;;;;;9.12;96.76;98863.66;1691709;83;20306;-75
2022/01/03 05:00:05;;;;;;;;;;;;;;;9.23;96.41;98860.61;1686887;83;20173;-75
2022/01/03 05:02:31;;;;;;;;;;;;;;;9.18;96.82;98859.00;1680377;83;20208;-74
2022/01/03 05:04:56;;;;;;;;;;;;;;;8.97;98.17;98851.80;1692630;83;20179;-75
2022/01/03 05:07:22;;;;;;;;;;;;;;;9.05;98.05;98885.14;1696499;83;21210;-77
2022/01/03 05:09:47;;;;;;;;;;;;;;;9.13;97.68;98900.35;1693934;83;20168;-76
2022/01/03 05:12:13;;;;;;;;;;;;;;;9.12;97.46;98859.71;1700992;83;20183;-75
2022/01/03 05:14:40;;;;;;;;;;;;;;;9.14;97.50;98867.77;1706371;83;20186;-77
2022/01/03 05:17:05;;;;;;;;;;;;;;;9.10;97.65;98859.89;1699321;83;20202;-76
2022/01/03 05:19:31;;;;;;;;;;;;;;;9.04;97.62;98865.06;1699053;83;21965;-75
2022/01/03 05:21:56;;;;;;;;;;;;;;;9.08;97.36;98865.84;1706159;83;20136;-75
2022/01/03 05:24:22;;;;;;;;;;;;;;;9.06;97.32;98855.16;1703276;83;20187;-76
2022/01/03 05:26:48;;;;;;;;;;;;;;;9.04;97.38;98861.11;1704454;82;20139;-76
2022/01/03 05:29:13;;;;;;;;;;;;;;;9.00;97.94;98873.02;1706359;83;20528;-75
2022/01/03 05:31:39;;;;;;;;;;;;;;;9.09;97.65;98900.88;1703353;83;21168;-75
2022/01/03 05:34:05;;;;;;;;;;;;;;;9.12;97.34;98855.28;1719674;83;20179;-75
2022/01/03 05:36:30;;;;;;;;;;;;;;;9.11;97.36;98863.36;1712308;83;20536;-75
2022/01/03 05:38:56;;;;;;;;;;;;;;;9.07;97.61;98865.52;1708020;83;20210;-76
2022/01/03 05:41:22;;;;;;;;;;;;;;;9.05;97.96;98849.59;1709121;83;20151;-75
2022/01/03 05:43:49;;;;;;;;;;;;;;;9.04;98.12;98854.52;1702658;83;20975;-75
2022/01/03 05:46:15;;;;;;;;;;;;;;;8.95;98.99;98863.81;1696997;83;20147;-75
2022/01/03 05:48:41;;;;;;;;;;;;;;;8.89;99.14;98859.27;1705940;83;20138;-77
2022/01/03 05:51:07;;;;;;;;;;;;;;;8.89;99.40;98877.69;1709154;83;20181;-75
2022/01/03 05:53:32;;;;;;;;;;;;;;;8.84;99.54;98873.46;1699568;83;20135;-76
2022/01/03 05:55:59;;;;;;;;;;;;;;;8.82;99.41;98884.64;1695290;83;21177;-75
2022/01/03 05:58:24;;;;;;;;;;;;;;;8.79;99.48;98872.67;1706155;83;20305;-78
2022/01/03 06:00:50;;;;;;;;;;;;;;;8.73;99.98;98881.75;1699889;83;20468;-77
2022/01/03 06:03:19;;;;;;;;;;;;;;;8.78;99.21;98872.84;1701466;83;20142;-75
2022/01/03 06:06:53;;;;;;;;;;;;;;;8.85;98.88;98856.66;1696021;82;20528;-76
2022/01/03 06:08:20;;;;;;;;;;;;;;;8.77;99.36;98869.89;1677042;83;20246;-75
2022/01/03 06:10:45;;;;;;;;;;;;;;;8.75;99.27;98882.41;1710214;83;20342;-75
2022/01/03 06:13:11;;;;;;;;;;;;;;;8.66;99.49;98862.41;1689155;83;20136;-75
2022/01/03 06:15:37;;;;;;;;;;;;;;;8.75;99.15;98875.83;1690022;83;20148;-75
2022/01/03 06:18:04;;;;;;;;;;;;;;;8.73;99.16;98869.91;1697274;83;20212;-76
2022/01/03 06:20:31;;;;;;;;;;;;;;;8.76;98.95;98880.08;1691439;83;20435;-76
2022/01/03 06:22:56;;;;;;;;;;;;;;;8.74;98.68;98892.61;1676601;83;20172;-74
2022/01/03 06:25:22;;;;;;;;;;;;;;;8.54;99.37;98886.48;1694649;83;20135;-74
2022/01/03 06:27:48;;;;;;;;;;;;;;;8.55;99.83;98874.97;1692039;82;20215;-75
2022/01/03 06:30:13;;;;;;;;;;;;;;;8.55;99.58;98905.23;1686576;83;20505;-77
2022/01/03 06:32:39;;;;;;;;;;;;;;;8.71;99.10;98881.92;1683820;83;21247;-76
2022/01/03 06:35:05;;;;;;;;;;;;;;;8.53;99.76;98895.86;1691698;83;20867;-76
2022/01/03 06:37:30;;;;;;;;;;;;;;;8.62;99.80;98890.87;1688534;83;20196;-74
2022/01/03 06:39:56;;;;;;;;;;;;;;;8.66;99.39;98886.09;1684144;83;20144;-75
2022/01/03 06:42:22;;;;;;;;;;;;;;;8.72;99.31;98884.08;1689940;83;20470;-77
2022/01/03 06:44:48;;;;;;;;;;;;;;;8.68;99.64;98894.63;1674499;83;21147;-75
2022/01/03 06:47:15;;;;;;;;;;;;;;;8.70;99.61;98884.73;1699011;83;20109;-74
2022/01/03 06:49:41;;;;;;;;;;;;;;;8.66;99.87;98894.80;1690441;83;20482;-78
2022/01/03 06:52:06;;;;;;;;;;;;;;;8.69;99.94;98884.43;1684440;83;20194;-75
2022/01/03 06:54:33;;;;;;;;;;;;;;;8.63;100.00;98906.48;1692487;83;20139;-76
2022/01/03 06:56:59;;;;;;;;;;;;;;;8.71;100.00;98893.77;1695309;83;21185;-79
2022/01/03 06:59:25;;;;;;;;;;;;;;;8.75;100.00;98891.12;1688488;83;20200;-80
2022/01/03 07:01:50;;;;;;;;;;;;;;;8.77;99.93;98904.10;1692013;83;20160;-75
2022/01/03 07:04:16;;;;;;;;;;;;;;;8.62;100.00;98886.44;1681453;83;20734;-75
2022/01/03 07:06:42;;;;;;;;;;;;;;;8.75;100.00;98897.70;1689212;83;20171;-76
2022/01/03 07:09:07;;;;;;;;;;;;;;;8.83;99.60;98913.13;1690446;83;22389;-75
2022/01/03 07:11:33;;;;;;;;;;;;;;;8.88;99.51;98885.26;1691586;83;20160;-76
2022/01/03 07:19:27;;;;;;;;;;;;;;;8.88;99.87;98899.73;1693801;83;20231;-76
2022/01/03 07:21:52;;;;;;;;;;;;;;;8.78;100.00;98891.27;1680304;83;21023;-75
2022/01/03 07:24:18;;;;;;;;;;;;;;;8.85;100.00;98882.17;1683955;83;20478;-75
2022/01/03 07:26:44;;;;;;;;;;;;;;;8.70;100.00;98880.78;1686976;83;20172;-80
2022/01/03 07:29:09;;;;;;;;;;;;;;;8.72;100.00;98898.55;1676330;83;20289;-76
2022/01/03 07:31:35;;;;;;;;;;;;;;;8.86;100.00;98897.79;1683130;83;20659;-75
2022/01/03 07:34:01;;;;;;;;;;;;;;;8.89;99.64;98900.58;1682895;83;21277;-80
2022/01/03 07:36:30;;;;;;;;;;;;;;;8.94;99.54;98889.81;1690664;83;20212;-77
2022/01/03 07:38:56;;;;;;;;;;;;;;;8.98;99.46;98888.48;1692214;83;21072;-79
2022/01/03 07:41:22;;;;;;;;;;;;;;;9.00;99.27;98892.77;1680058;83;20220;-75
2022/01/03 07:43:48;;;;;;;;;;;;;;;8.99;99.39;98894.55;1683287;83;20154;-74
2022/01/03 07:46:14;;;;;;;;;;;;;;;8.93;99.65;98901.36;1683341;83;21168;-78
2022/01/03 07:48:40;;;;;;;;;;;;;;;8.97;99.62;98893.92;1690136;83;20205;-77
2022/01/03 07:51:06;;;;;;;;;;;;;;;8.94;99.86;98889.81;1680326;83;20197;-78
2022/01/03 07:53:31;;;;;;;;;;;;;;;8.73;100.00;98904.13;1681630;83;21395;-76
2022/01/03 07:55:58;;;;;;;;;;;;;;;8.80;100.00;98895.86;1687454;83;20115;-75
2022/01/03 07:58:25;;;;;;;;;;;;;;;8.74;100.00;98897.88;1681087;83;21105;-80
2022/01/03 08:00:52;;;;;;;;;;;;;;;8.76;100.00;98891.92;1681811;83;20510;-79
2022/01/03 08:03:18;;;;;;;;;;;;;;;8.76;100.00;98891.92;1685415;83;20125;-79
2022/01/03 08:05:43;;;;;;;;;;;;;;;8.83;100.00;98889.43;1682021;83;21226;-78
2022/01/03 08:08:12;;;;;;;;;;;;;;;8.90;100.00;98898.24;1686728;83;20254;-78
2022/01/03 08:10:39;;;;;;;;;;;;;;;8.95;100.00;98888.02;1683830;83;20984;-76
2022/01/03 08:13:06;;;;;;;;;;;;;;;9.06;100.00;98886.75;1681899;83;20664;-74
2022/01/03 08:15:32;;;;;;;;;;;;;;;9.12;100.00;98881.62;1696245;83;20160;-76
2022/01/03 08:17:58;;;;;;;;;;;;;;;9.14;100.00;98886.70;1691878;83;20177;-80
2022/01/03 08:20:25;;;;;;;;;;;;;;;9.24;100.00;98884.62;1692042;83;20492;-76
2022/01/03 08:22:52;;;;;;;;;;;;;;;9.20;100.00;98889.11;1692683;83;20783;-76
2022/01/03 08:25:20;;;;;;;;;;;;;;;9.23;99.70;98881.69;1690004;83;20205;-77
2022/01/03 08:27:46;;;;;;;;;;;;;;;9.27;99.34;98884.27;1690421;83;20187;-78
2022/01/03 08:30:12;;;;;;;;;;;;;;;9.27;99.79;98879.00;1657457;83;20186;-78
2022/01/03 08:32:38;;;;;;;;;;;;;;;9.27;99.78;98880.31;1691655;83;20197;-77
2022/01/03 08:35:05;;;;;;;;;;;;;;;9.17;100.00;98879.77;1686805;83;21329;-77
2022/01/03 08:37:31;;;;;;;;;;;;;;;9.11;100.00;98875.21;1689987;83;20227;-77
2022/01/03 08:39:57;;;;;;;;;;;;;;;9.14;100.00;98881.44;1691924;83;20225;-76
2022/01/03 08:42:25;;;;;;;;;;;;;;;9.22;100.00;98882.67;1697851;83;21020;-75
2022/01/03 08:44:51;;;;;;;;;;;;;;;9.37;99.80;98877.92;1693694;83;20219;-76
2022/01/03 08:47:16;;;;;;;;;;;;;;;9.33;99.45;98894.09;1695619;83;21089;-76
2022/01/03 08:49:42;;;;;;;;;;;;;;;9.27;100.00;98880.82;1695297;83;20510;-75
2022/01/03 08:52:09;;;;;;;;;;;;;;;9.25;100.00;98886.27;1693107;83;20585;-77
2022/01/03 08:54:35;;;;;;;;;;;;;;;9.29;100.00;98887.56;1694652;83;20120;-76
2022/01/03 08:57:01;;;;;;;;;;;;;;;9.37;100.00;98891.09;1691330;83;20144;-75
2022/01/03 08:59:28;;;;;;;;;;;;;;;9.47;99.65;98900.38;1692892;83;21279;-76
2022/01/03 09:01:54;;;;;;;;;;;;;;;9.45;99.80;98893.67;1696068;83;20330;-75
2022/01/03 09:04:21;;;;;;;;;;;;;;;9.37;100.00;98893.73;1691744;83;20206;-75
2022/01/03 09:06:48;;;;;;;;;;;;;;;9.22;100.00;98886.63;1693938;83;20307;-74
2022/01/03 09:09:14;;;;;;;;;;;;;;;9.38;100.00;98890.11;1691027;83;20725;-75
2022/01/03 09:11:40;;;;;;;;;;;;;;;9.42;100.00;98896.66;1688160;83;21934;-75
2022/01/03 09:14:05;;;;;;;;;;;;;;;9.37;100.00;98901.63;1691014;83;20191;-75
2022/01/03 09:16:31;;;;;;;;;;;;;;;9.35;100.00;98896.55;1688483;83;20325;-74
2022/01/03 09:18:57;;;;;;;;;;;;;;;9.38;100.00;98889.59;1688912;83;21059;-76
2022/01/03 09:21:22;;;;;;;;;;;;;;;9.26;100.00;98887.08;1686495;83;20235;-74
2022/01/03 09:23:53;;;;;;;;;;;;;;;9.28;100.00;98895.64;1685777;83;21175;-75
2022/01/03 09:28:59;;;;;;;;;;;;;;;9.13;100.00;98896.91;1686785;83;20104;-77
2022/01/03 09:31:32;;;;;;;;;;;;;;;9.13;100.00;98904.81;1682793;83;20135;-78
2022/01/03 09:33:59;;;;;;;;;;;;;;;8.97;100.00;98888.66;1685016;83;20169;-78
2022/01/03 09:36:25;;;;;;;;;;;;;;;9.09;100.00;98894.30;1695874;83;21225;-79
2022/01/03 09:38:51;;;;;;;;;;;;;;;9.08;100.00;98916.39;1683018;83;20219;-76
2022/01/03 09:41:21;;;;;;;;;;;;;;;8.91;100.00;98895.44;1689441;82;20128;-76
2022/01/03 09:43:52;;;;;;;;;;;;;;;8.60;100.00;98891.55;1684382;82;20239;-77
2022/01/03 09:46:26;;;;;;;;;;;;;;;8.62;100.00;98892.19;1697700;83;20172;-78
2022/01/03 09:48:52;;;;;;;;;;;;;;;8.58;100.00;98885.14;1685500;83;21253;-79
2022/01/03 09:51:23;;;;;;;;;;;;;;;8.43;100.00;98900.00;1688134;83;20156;-76
2022/01/03 09:53:50;;;;;;;;;;;;;;;8.34;100.00;98893.15;1685321;83;20172;-74
2022/01/03 09:56:16;;;;;;;;;;;;;;;8.39;100.00;98894.75;1698223;82;20176;-79
2022/01/03 09:58:41;;;;;;;;;;;;;;;8.28;100.00;98894.64;1692587;83;20195;-75
2022/01/03 10:01:07;;;;;;;;;;;;;;;8.09;100.00;98893.27;1680295;83;21138;-75
2022/01/03 10:03:35;;;;;;;;;;;;;;;8.10;100.00;98892.28;1692251;83;20399;-74
2022/01/03 10:06:00;;;;;;;;;;;;;;;8.01;100.00;98898.56;1686572;83;20171;-75
2022/01/03 10:08:26;;;;;;;;;;;;;;;7.87;100.00;98902.22;1695273;83;20495;-74
2022/01/03 10:10:52;;;;;;;;;;;;;;;8.05;100.00;98880.16;1700929;83;20500;-74
2022/01/03 10:13:19;;;;;;;;;;;;;;;8.01;100.00;98885.42;1686035;83;20745;-78
2022/01/03 10:15:44;;;;;;;;;;;;;;;7.93;100.00;98888.09;1687526;82;20250;-75
2022/01/03 10:18:17;;;;;;;;;;;;;;;7.84;100.00;98903.87;1690377;83;20171;-79
2022/01/03 10:20:43;;;;;;;;;;;;;;;7.84;100.00;98894.67;1690301;83;20181;-76
2022/01/03 10:23:11;;;;;;;;;;;;;;;7.96;100.00;98889.88;1691010;83;20142;-75
2022/01/03 10:25:36;;;;;;;;;;;;;;;7.93;100.00;98885.47;1691540;83;21086;-79
2022/01/03 10:28:07;;;;;;;;;;;;;;;8.02;100.00;98885.25;1692012;83;20194;-76
2022/01/03 10:30:40;;;;;;;;;;;;;;;7.93;100.00;98877.58;1692311;83;20121;-75
2022/01/03 10:33:08;;;;;;;;;;;;;;;7.76;100.00;98889.95;1691213;83;20214;-76
2022/01/03 10:35:39;;;;;;;;;;;;;;;7.70;100.00;98890.13;1688841;83;20232;-76
2022/01/03 10:38:05;;;;;;;;;;;;;;;7.75;100.00;98882.55;1669785;83;40782;-75
2022/01/03 10:40:31;;;;;;;;;;;;;;;7.73;100.00;98893.73;1703457;83;20155;-76
2022/01/03 10:42:58;;;;;;;;;;;;;;;7.64;100.00;98886.86;1702734;83;21043;-76
2022/01/03 10:45:31;;;;;;;;;;;;;;;7.58;100.00;98881.77;1695617;83;21065;-77
2022/01/03 10:47:57;;;;;;;;;;;;;;;7.70;100.00;98884.87;1691975;83;20257;-75
2022/01/03 10:50:24;;;;;;;;;;;;;;;7.79;100.00;98885.17;1693762;83;21129;-77
2022/01/03 10:52:50;;;;;;;;;;;;;;;7.98;100.00;98890.52;1693255;83;20254;-80
2022/01/03 10:55:33;;;;;;;;;;;;;;;8.04;100.00;98881.14;1695679;83;20210;-75
2022/01/03 10:57:58;;;;;;;;;;;;;;;8.04;100.00;98885.08;1687131;83;20251;-78
2022/01/03 11:00:40;;;;;;;;;;;;;;;8.03;100.00;98884.75;1691732;83;20526;-76
2022/01/03 11:03:22;;;;;;;;;;;;;;;8.05;100.00;98873.08;1695358;83;21427;-76
2022/01/03 11:05:52;;;;;;;;;;;;;;;8.17;100.00;98880.10;1687326;83;20177;-80
2022/01/03 11:10:58;;;;;;;;;;;;;;;8.09;100.00;98878.80;1699121;83;20207;-77
2022/01/03 11:13:24;;;;;;;;;;;;;;;7.98;100.00;98877.88;1697918;83;20218;-79
2022/01/03 11:16:00;;;;;;;;;;;;;;;8.03;100.00;98875.55;1692720;83;21407;-82
2022/01/03 11:18:39;;;;;;;;;;;;;;;8.12;100.00;98873.20;1688393;83;20168;-79
2022/01/03 11:21:11;;;;;;;;;;;;;;;8.25;100.00;98873.98;1691844;83;20199;-74
2022/01/03 11:23:37;;;;;;;;;;;;;;;8.19;100.00;98872.04;1682510;83;20221;-74
2022/01/03 11:26:12;;;;;;;;;;;;;;;8.08;100.00;98864.04;1680580;83;20149;-78
2022/01/03 11:28:37;;;;;;;;;;;;;;;8.07;100.00;98861.88;1682803;83;21203;-76
2022/01/03 11:31:03;;;;;;;;;;;;;;;8.12;100.00;98858.73;1682555;83;20373;-77
2022/01/03 11:33:30;;;;;;;;;;;;;;;8.19;100.00;98855.75;1683304;83;20263;-74
2022/01/03 11:35:55;;;;;;;;;;;;;;;8.18;100.00;98858.05;1685168;83;20263;-77
2022/01/03 11:38:22;;;;;;;;;;;;;;;8.18;100.00;98863.31;1681817;83;20190;-75
2022/01/03 11:40:48;;;;;;;;;;;;;;;8.27;100.00;98856.20;1681676;83;21169;-74
2022/01/03 11:43:14;;;;;;;;;;;;;;;8.29;100.00;98859.98;1688042;83;20257;-78
2022/01/03 11:45:39;;;;;;;;;;;;;;;8.33;100.00;98844.16;1690150;83;20242;-79
2022/01/03 11:48:07;;;;;;;;;;;;;;;8.36;100.00;98837.23;1685928;83;20176;-78
2022/01/03 11:50:32;;;;;;;;;;;;;;;8.38;100.00;98837.89;1689421;83;20192;-76
2022/01/03 11:52:58;;;;;;;;;;;;;;;8.43;100.00;98843.44;1682914;83;21101;-77
2022/01/03 11:55:25;;;;;;;;;;;;;;;8.42;100.00;98837.85;1683540;83;20142;-80
2022/01/03 12:06:03;;;;;;;;;;;;;;;8.47;100.00;98836.04;1689386;83;20192;-76
2022/01/03 12:08:37;;;;;;;;;;;;;;;8.53;100.00;98836.18;1673934;83;20195;-76
2022/01/03 12:11:20;;;;;;;;;;;;;;;8.55;100.00;98834.19;1688782;83;20153;-75
2022/01/03 12:13:52;;;;;;;;;;;;;;;8.53;100.00;98826.97;1676498;83;20269;-78
2022/01/03 12:16:19;;;;;;;;;;;;;;;8.58;100.00;98834.34;1684408;83;20221;-78
2022/01/03 12:18:59;;;;;;;;;;;;;;;8.71;100.00;98831.92;1682396;82;21110;-75
2022/01/03 12:21:50;;;;;;;;;;;;;;;8.73;100.00;98837.00;1686894;83;20222;-75
2022/01/03 12:24:38;;;;;;;;;;;;;;;8.67;100.00;98836.39;1688572;83;20183;-76
2022/01/03 12:27:14;;;;;;;;;;;;;;;8.76;100.00;98839.28;1665291;83;20208;-77
2022/01/03 12:29:58;;;;;;;;;;;;;;;8.84;100.00;98839.24;1688672;83;20192;-75
2022/01/03 12:32:28;;;;;;;;;;;;;;;8.76;100.00;98841.44;1689309;82;21256;-75
2022/01/03 12:35:16;;;;;;;;;;;;;;;8.87;100.00;98840.68;1699927;83;20192;-78
2022/01/03 12:37:49;;;;;;;;;;;;;;;8.87;100.00;98844.16;1684042;83;20162;-77
2022/01/03 12:40:18;;;;;;;;;;;;;;;8.76;100.00;98845.39;1683081;83;20191;-76
2022/01/03 12:42:51;;;;;;;;;;;;;;;8.85;100.00;98851.39;1688737;83;20168;-76
2022/01/03 12:45:33;;;;;;;;;;;;;;;8.91;100.00;98845.41;1690176;83;21143;-74
2022/01/03 12:48:15;;;;;;;;;;;;;;;8.74;100.00;98859.71;1686094;83;20224;-74
2022/01/03 12:50:55;;;;;;;;;;;;;;;8.82;100.00;98859.64;1694046;83;20124;-75
2022/01/03 12:53:30;;;;;;;;;;;;;;;8.79;100.00;98866.57;1690500;83;20216;-75
2022/01/03 12:56:07;;;;;;;;;;;;;;;8.72;100.00;98861.71;1692958;83;20224;-75
2022/01/03 12:58:36;;;;;;;;;;;;;;;8.73;100.00;98864.16;1685406;83;21298;-75
2022/01/03 13:01:08;;;;;;;;;;;;;;;8.78;100.00;98870.22;1693011;83;20176;-76
2022/01/03 13:03:49;;;;;;;;;;;;;;;8.81;100.00;98871.19;1691721;83;20156;-81
2022/01/03 13:06:17;;;;;;;;;;;;;;;8.75;100.00;98878.47;1689749;83;20140;-81
2022/01/03 13:08:49;;;;;;;;;;;;;;;8.68;100.00;98886.73;1686344;83;20227;-75
2022/01/03 13:11:18;;;;;;;;;;;;;;;8.62;100.00;98887.76;1691327;83;21109;-76
2022/01/03 13:13:45;;;;;;;;;;;;;;;8.63;100.00;98895.95;1690362;83;20128;-81